Weather at Kerrville Municipal Louis Schreiner Field

Public forecast

Using degrees Fahrenheit for public forecast. Weather courtesy of forecast.io.

Current aviation weather report (METAR) for Kerrville Municipal Louis Schreiner Field

Retrieved 2020/09/27 02:35 UTC (0 seconds ago):

KERV 270235Z AUTO 15005KT 10SM CLR 25/19 A2986 RMK AO2 T02470185

Closest aviation forecast (TAF) to Kerrville Municipal Louis Schreiner Field

Closest forecast is San Antonio International Airport, 41.7 nm (77.2 km) SE. Retrieved 2020-09-27 00:33 UTC (2 hours ago):

TAF KSAT 262330Z 2700/2806 15012KT P6SM SKC FM270800 16008KT P6SM BKN015 FM271100 17008KT P6SM OVC008 FM271600 17010KT P6SM OVC012 FM271800 16014KT P6SM SCT025